createdAt,value
2022-11-30T00:02:04.647Z,2.37
2022-11-30T00:04:32.700Z,2.30
2022-11-30T00:07:01.000Z,2.20
2022-11-30T00:09:30.281Z,2.30
2022-11-30T00:11:58.407Z,2.10
2022-11-30T00:14:26.393Z,2.00
2022-11-30T00:16:54.407Z,1.93
2022-11-30T00:19:22.426Z,1.80
2022-11-30T00:21:50.377Z,1.70
2022-11-30T00:24:18.330Z,1.80
2022-11-30T00:26:47.679Z,2.00
2022-11-30T00:29:15.662Z,2.10
2022-11-30T00:31:43.599Z,1.90
2022-11-30T00:34:11.605Z,2.27
2022-11-30T00:36:39.580Z,1.90
2022-11-30T00:39:07.752Z,1.80
2022-11-30T00:41:35.687Z,1.60
2022-11-30T00:44:05.036Z,1.70
2022-11-30T00:46:33.117Z,1.87
2022-11-30T00:49:01.171Z,1.70
2022-11-30T00:51:29.181Z,1.87
2022-11-30T00:53:57.225Z,1.70
2022-11-30T00:56:25.181Z,1.77
2022-11-30T00:58:53.246Z,1.90
2022-11-30T01:01:22.743Z,1.87
2022-11-30T01:03:50.740Z,1.60
2022-11-30T01:06:18.760Z,1.70
2022-11-30T01:08:48.159Z,1.70
2022-11-30T01:11:19.043Z,1.80
2022-11-30T01:13:46.971Z,1.90
2022-11-30T01:16:18.068Z,1.60
2022-11-30T01:18:48.404Z,1.70
2022-11-30T01:21:18.284Z,1.70
2022-11-30T01:23:46.371Z,1.90
2022-11-30T01:26:15.115Z,1.70
2022-11-30T01:28:44.163Z,1.70
2022-11-30T01:31:14.532Z,1.90
2022-11-30T01:33:43.281Z,2.00
2022-11-30T01:36:14.731Z,1.70
2022-11-30T01:38:44.731Z,1.80
2022-11-30T01:41:14.783Z,2.00
2022-11-30T01:43:45.152Z,1.80
2022-11-30T01:46:33.904Z,2.00
2022-11-30T01:49:08.123Z,1.90
2022-11-30T01:51:41.649Z,1.87
2022-11-30T01:54:11.747Z,1.90
2022-11-30T01:56:45.300Z,1.80
2022-11-30T01:59:13.741Z,1.70
2022-11-30T02:01:42.178Z,1.60
2022-11-30T02:04:16.527Z,1.63
2022-11-30T02:06:46.902Z,1.87
2022-11-30T02:09:17.769Z,1.63
2022-11-30T02:11:45.793Z,1.80
2022-11-30T02:14:32.744Z,1.83
2022-11-30T02:17:09.708Z,1.50
2022-11-30T02:20:13.419Z,1.37
2022-11-30T02:22:57.754Z,1.50
2022-11-30T02:25:33.272Z,1.83
2022-11-30T02:28:17.714Z,1.80
2022-11-30T02:30:51.824Z,1.60
2022-11-30T02:33:23.464Z,1.60
2022-11-30T02:35:55.558Z,1.50
2022-11-30T02:38:25.324Z,1.33
2022-11-30T02:40:53.311Z,1.50
2022-11-30T02:43:25.707Z,1.70
2022-11-30T02:46:07.141Z,1.50
2022-11-30T02:48:43.877Z,1.50
2022-11-30T02:51:15.980Z,1.37
2022-11-30T02:53:44.231Z,1.60
2022-11-30T02:56:12.195Z,1.40
2022-11-30T02:58:41.139Z,1.80
2022-11-30T03:01:10.690Z,1.60
2022-11-30T03:03:38.757Z,1.40
2022-11-30T03:06:07.263Z,1.40
2022-11-30T03:08:35.297Z,1.33
2022-11-30T03:11:04.456Z,1.40
2022-11-30T03:13:32.462Z,1.40
2022-11-30T03:16:06.959Z,1.43
2022-11-30T03:18:37.616Z,1.20
2022-11-30T03:21:07.765Z,1.40
2022-11-30T03:23:36.774Z,1.40
2022-11-30T03:26:05.591Z,1.47
2022-11-30T03:28:33.883Z,1.60
2022-11-30T03:31:01.941Z,1.90
2022-11-30T03:33:29.970Z,1.20
2022-11-30T03:36:04.201Z,1.33
2022-11-30T03:38:32.419Z,1.30
2022-11-30T03:41:01.757Z,1.40
2022-11-30T03:43:30.022Z,1.40
2022-11-30T03:45:58.080Z,1.50
2022-11-30T03:48:26.290Z,1.70
2022-11-30T03:50:54.371Z,1.50
2022-11-30T03:53:25.072Z,1.70
2022-11-30T03:55:55.073Z,1.77
2022-11-30T03:58:23.657Z,1.90
2022-11-30T04:00:52.627Z,1.90
2022-11-30T04:03:20.634Z,1.80
2022-11-30T04:05:48.857Z,2.10
2022-11-30T04:08:16.873Z,1.80
2022-11-30T04:10:48.858Z,1.73
2022-11-30T04:13:16.872Z,1.70
2022-11-30T04:15:44.904Z,1.70
2022-11-30T04:18:12.933Z,1.80
2022-11-30T04:20:40.957Z,1.90
2022-11-30T04:23:09.461Z,1.87
2022-11-30T04:25:39.138Z,1.53
2022-11-30T04:28:09.636Z,1.70
2022-11-30T04:30:38.345Z,1.20
2022-11-30T04:33:06.945Z,1.10
2022-11-30T04:35:35.695Z,1.00
2022-11-30T04:38:03.802Z,1.20
2022-11-30T04:40:31.727Z,1.20
2022-11-30T04:42:59.784Z,1.10
2022-11-30T04:45:35.074Z,1.20
2022-11-30T04:48:03.486Z,1.20
2022-11-30T04:50:31.639Z,0.90
2022-11-30T04:52:59.569Z,1.20
2022-11-30T04:55:27.925Z,1.20
2022-11-30T04:57:55.928Z,1.10
2022-11-30T05:00:24.092Z,1.13
2022-11-30T05:02:53.508Z,1.00
2022-11-30T05:05:21.519Z,1.23
2022-11-30T05:07:51.538Z,1.20
2022-11-30T05:10:19.912Z,1.00
2022-11-30T05:12:47.857Z,1.03
2022-11-30T05:15:15.907Z,1.00
2022-11-30T05:17:43.981Z,1.10
2022-11-30T05:20:13.885Z,1.20
2022-11-30T05:22:41.951Z,1.13
2022-11-30T05:25:10.549Z,1.10
2022-11-30T05:27:38.932Z,1.10
2022-11-30T05:30:08.245Z,1.10
2022-11-30T05:32:36.646Z,1.20
2022-11-30T05:35:04.994Z,1.10
2022-11-30T05:37:34.423Z,1.20
2022-11-30T05:40:02.366Z,1.00
2022-11-30T05:42:30.321Z,1.10
2022-11-30T05:44:58.393Z,0.90
2022-11-30T05:47:26.403Z,0.90
2022-11-30T05:49:54.458Z,1.20
2022-11-30T05:52:22.673Z,1.10
2022-11-30T05:54:52.108Z,1.20
2022-11-30T05:57:20.105Z,1.10
2022-11-30T05:59:48.459Z,1.20
2022-11-30T06:02:16.568Z,1.20
2022-11-30T06:04:44.763Z,1.20
2022-11-30T06:07:12.784Z,1.23
2022-11-30T06:09:41.028Z,1.20
2022-11-30T06:12:10.557Z,1.30
2022-11-30T06:14:38.586Z,1.30
2022-11-30T06:17:06.496Z,1.20
2022-11-30T06:19:34.512Z,1.10
2022-11-30T06:22:02.537Z,1.30
2022-11-30T06:24:30.988Z,1.33
2022-11-30T06:26:58.923Z,1.40
2022-11-30T06:29:28.335Z,1.13
2022-11-30T06:31:56.406Z,1.30
2022-11-30T06:34:24.471Z,1.23
2022-11-30T06:36:52.569Z,1.27
2022-11-30T06:39:36.543Z,1.40
2022-11-30T06:42:08.522Z,1.10
2022-11-30T06:44:37.937Z,1.13
2022-11-30T06:47:06.001Z,1.20
2022-11-30T06:49:33.954Z,1.03
2022-11-30T06:52:01.959Z,1.13
2022-11-30T06:54:29.927Z,1.20
2022-11-30T06:56:58.023Z,1.30
2022-11-30T06:59:25.984Z,1.20
2022-11-30T07:01:55.394Z,1.30
2022-11-30T07:04:23.443Z,1.20
2022-11-30T07:06:51.388Z,1.10
2022-11-30T07:09:19.400Z,1.27
2022-11-30T07:11:47.763Z,1.20
2022-11-30T07:14:15.968Z,1.30
2022-11-30T07:16:44.073Z,1.40
2022-11-30T07:19:13.524Z,1.20
2022-11-30T07:21:41.673Z,1.30
2022-11-30T07:24:27.537Z,1.20
2022-11-30T07:26:55.713Z,1.20
2022-11-30T07:29:23.757Z,1.10
2022-11-30T07:31:52.877Z,1.30
2022-11-30T07:34:23.000Z,1.20
2022-11-30T07:36:50.958Z,1.10
2022-11-30T07:40:22.060Z,1.00
2022-11-30T07:42:55.609Z,1.40
2022-11-30T07:45:23.568Z,1.20
2022-11-30T07:47:51.570Z,1.20
2022-11-30T07:50:21.073Z,1.00
2022-11-30T07:52:49.182Z,1.20
2022-11-30T07:55:17.968Z,1.10
2022-11-30T07:57:46.079Z,1.27
2022-11-30T08:00:15.172Z,1.20
2022-11-30T08:02:43.201Z,1.17
2022-11-30T08:05:12.204Z,1.10
2022-11-30T08:07:41.621Z,1.07
2022-11-30T08:10:12.696Z,1.00
2022-11-30T08:12:40.798Z,1.10
2022-11-30T08:15:19.972Z,1.20
2022-11-30T08:17:54.646Z,1.10
2022-11-30T08:20:23.818Z,1.00
2022-11-30T08:22:53.248Z,0.90
2022-11-30T08:25:21.316Z,0.93
2022-11-30T08:27:49.235Z,1.10
2022-11-30T08:30:17.605Z,1.20
2022-11-30T08:32:45.731Z,1.10
2022-11-30T08:35:13.675Z,1.00
2022-11-30T08:37:41.623Z,1.10
2022-11-30T08:40:11.693Z,1.07
2022-11-30T08:42:39.690Z,1.07
2022-11-30T08:45:09.078Z,1.10
2022-11-30T08:47:37.326Z,0.80
2022-11-30T08:50:06.193Z,1.10
2022-11-30T08:52:34.192Z,1.10
2022-11-30T08:55:02.201Z,1.10
2022-11-30T08:57:31.860Z,1.20
2022-11-30T08:59:59.801Z,1.17
2022-11-30T09:02:28.063Z,1.10
2022-11-30T09:04:56.282Z,0.80
2022-11-30T09:07:24.296Z,1.00
2022-11-30T09:09:52.347Z,1.30
2022-11-30T09:12:20.352Z,1.10
2022-11-30T09:14:57.362Z,1.10
2022-11-30T09:17:25.889Z,1.20
2022-11-30T09:19:54.733Z,1.00
2022-11-30T09:22:22.875Z,1.00
2022-11-30T09:24:51.027Z,1.03
2022-11-30T09:27:19.149Z,1.07
2022-11-30T09:29:47.284Z,0.90
2022-11-30T09:32:17.024Z,1.07
2022-11-30T09:34:45.577Z,1.10
2022-11-30T09:37:14.250Z,1.00
2022-11-30T09:39:42.357Z,1.30
2022-11-30T09:42:29.729Z,1.10
2022-11-30T09:45:04.633Z,1.10
2022-11-30T09:47:54.457Z,1.10
2022-11-30T09:50:25.878Z,1.10
2022-11-30T09:52:58.419Z,1.10
2022-11-30T09:55:29.884Z,1.00
2022-11-30T09:58:02.595Z,1.10
2022-11-30T10:00:31.122Z,1.17
2022-11-30T10:03:04.443Z,1.00
2022-11-30T10:05:44.256Z,0.90
2022-11-30T10:08:34.962Z,1.03
2022-11-30T10:11:21.079Z,1.10
2022-11-30T10:14:00.827Z,1.00
2022-11-30T10:16:37.635Z,1.10
2022-11-30T10:19:18.785Z,0.90
2022-11-30T10:21:59.321Z,1.00
2022-11-30T10:24:37.741Z,0.97
2022-11-30T10:27:18.154Z,0.90
2022-11-30T10:29:46.362Z,0.80
2022-11-30T10:32:20.471Z,1.03
2022-11-30T10:34:54.504Z,1.20
2022-11-30T10:37:30.639Z,1.23
2022-11-30T10:40:02.616Z,1.10
2022-11-30T10:42:36.329Z,1.10
2022-11-30T10:45:10.128Z,0.90
2022-11-30T10:47:44.983Z,1.10
2022-11-30T10:50:18.337Z,1.20
2022-11-30T10:52:49.993Z,1.30
2022-11-30T10:55:21.924Z,1.10
2022-11-30T10:57:52.462Z,1.20
2022-11-30T11:00:21.500Z,1.10
2022-11-30T11:02:52.848Z,1.10
2022-11-30T11:05:25.247Z,1.20
2022-11-30T11:08:01.189Z,1.00
2022-11-30T11:10:34.423Z,1.10
2022-11-30T11:13:02.692Z,1.20
2022-11-30T11:15:32.279Z,1.20
2022-11-30T11:18:22.123Z,1.40
2022-11-30T11:21:05.815Z,1.30
2022-11-30T11:23:38.109Z,1.20
2022-11-30T11:26:07.511Z,1.30
2022-11-30T11:28:37.254Z,1.20
2022-11-30T11:31:19.094Z,1.30
2022-11-30T11:33:55.653Z,1.20
2022-11-30T11:36:30.503Z,1.20
2022-11-30T11:39:00.498Z,1.10
2022-11-30T11:41:31.525Z,1.23
2022-11-30T11:44:05.314Z,1.20
2022-11-30T11:46:36.662Z,1.20
2022-11-30T11:49:07.046Z,1.40
2022-11-30T11:51:38.185Z,1.40
2022-11-30T11:54:21.876Z,1.50
2022-11-30T11:56:51.167Z,1.50
2022-11-30T11:59:26.857Z,1.57
2022-11-30T12:02:03.559Z,1.63
2022-11-30T12:04:44.420Z,1.60
2022-11-30T12:07:23.928Z,1.60
2022-11-30T12:10:01.866Z,1.53
2022-11-30T12:12:30.203Z,1.47
2022-11-30T12:14:58.431Z,1.57
2022-11-30T12:17:44.129Z,1.60
2022-11-30T12:20:21.179Z,1.50
2022-11-30T12:23:11.352Z,1.30
2022-11-30T12:25:49.628Z,1.40
2022-11-30T12:28:24.306Z,1.63
2022-11-30T12:31:11.754Z,1.50
2022-11-30T12:33:54.344Z,1.70
2022-11-30T12:36:34.268Z,1.70
2022-11-30T12:39:11.078Z,1.60
2022-11-30T12:41:43.869Z,1.70
2022-11-30T12:44:28.972Z,1.80
2022-11-30T12:47:06.938Z,1.50
2022-11-30T12:49:54.791Z,1.80
2022-11-30T12:52:36.122Z,1.50
2022-11-30T12:55:18.770Z,1.60
2022-11-30T12:57:54.325Z,1.60
2022-11-30T13:00:24.248Z,1.70
2022-11-30T13:03:23.600Z,1.40
2022-11-30T13:05:57.968Z,2.00
2022-11-30T13:08:32.115Z,1.90
2022-11-30T13:11:07.569Z,1.90
2022-11-30T13:13:37.693Z,2.10
2022-11-30T13:16:09.640Z,1.60
2022-11-30T13:18:38.275Z,1.80
2022-11-30T13:21:16.404Z,1.80
2022-11-30T13:23:55.934Z,2.00
2022-11-30T13:26:31.371Z,1.80
2022-11-30T13:29:16.035Z,1.90
2022-11-30T13:31:52.245Z,1.80
2022-11-30T13:34:25.892Z,1.70
2022-11-30T13:37:03.192Z,1.80
2022-11-30T13:39:37.465Z,1.70
2022-11-30T13:42:34.238Z,1.80
2022-11-30T13:45:22.016Z,1.60
2022-11-30T13:47:51.551Z,1.50
2022-11-30T13:50:26.621Z,1.50
2022-11-30T13:53:26.120Z,1.40
2022-11-30T13:56:30.862Z,1.70
2022-11-30T13:59:36.274Z,1.60
2022-11-30T14:05:48.226Z,1.60
2022-11-30T14:08:34.093Z,1.63
2022-11-30T14:11:37.384Z,1.50
2022-11-30T14:14:46.145Z,1.40
2022-11-30T14:17:27.798Z,1.40
2022-11-30T14:20:00.432Z,1.47
2022-11-30T14:22:30.728Z,1.60
2022-11-30T14:24:59.124Z,1.50
2022-11-30T14:27:30.386Z,1.40
2022-11-30T14:30:04.544Z,1.50
2022-11-30T14:32:38.072Z,1.50
2022-11-30T14:35:11.793Z,1.60
2022-11-30T14:37:46.003Z,1.30
2022-11-30T14:40:20.413Z,1.60
2022-11-30T14:42:51.853Z,1.57
2022-11-30T14:45:29.321Z,1.60
2022-11-30T14:48:07.769Z,1.53
2022-11-30T14:50:37.836Z,1.47
2022-11-30T14:53:26.421Z,1.70
2022-11-30T14:56:01.101Z,1.77
2022-11-30T14:58:38.623Z,1.77
2022-11-30T15:01:19.777Z,1.60
2022-11-30T15:03:49.727Z,1.70
2022-11-30T15:06:19.771Z,1.40
2022-11-30T15:08:51.176Z,1.80
2022-11-30T15:11:20.519Z,1.67
2022-11-30T15:13:51.231Z,1.63
2022-11-30T15:16:22.685Z,1.80
2022-11-30T15:18:51.187Z,1.80
2022-11-30T15:21:23.670Z,1.60
2022-11-30T15:23:52.242Z,1.77
2022-11-30T15:26:25.864Z,1.80
2022-11-30T15:28:58.025Z,1.63
2022-11-30T15:31:33.591Z,1.67
2022-11-30T15:34:01.794Z,1.80
2022-11-30T15:37:01.604Z,1.80
2022-11-30T15:39:30.811Z,1.70
2022-11-30T15:42:01.134Z,1.60
2022-11-30T15:44:41.272Z,1.70
2022-11-30T15:47:26.864Z,1.60
2022-11-30T15:49:56.728Z,1.60
2022-11-30T15:52:28.523Z,1.50
2022-11-30T15:54:58.964Z,1.57
2022-11-30T15:57:28.753Z,1.60
2022-11-30T16:00:20.871Z,1.60
2022-11-30T16:02:50.946Z,1.50
2022-11-30T16:05:27.814Z,1.40
2022-11-30T16:07:59.934Z,1.53
2022-11-30T16:10:31.421Z,1.60
2022-11-30T16:12:59.624Z,1.40
2022-11-30T16:15:29.911Z,1.40
2022-11-30T16:18:02.002Z,1.50
2022-11-30T16:20:30.214Z,1.40
2022-11-30T16:23:04.020Z,1.53
2022-11-30T16:25:33.683Z,1.60
2022-11-30T16:28:02.757Z,1.40
2022-11-30T16:30:32.027Z,1.37
2022-11-30T16:33:01.454Z,1.67
2022-11-30T16:35:41.063Z,1.50
2022-11-30T16:38:09.034Z,1.60
2022-11-30T16:40:39.244Z,1.30
2022-11-30T16:43:07.545Z,1.60
2022-11-30T16:45:38.037Z,1.60
2022-11-30T16:48:08.604Z,1.60
2022-11-30T16:50:37.664Z,1.40
2022-11-30T16:53:06.387Z,1.40
2022-11-30T16:55:37.857Z,1.60
2022-11-30T16:58:06.484Z,1.80
2022-11-30T17:00:34.891Z,1.73
2022-11-30T17:03:09.906Z,1.90
2022-11-30T17:05:38.269Z,1.73
2022-11-30T17:08:11.994Z,1.70
2022-11-30T17:10:45.783Z,2.40
2022-11-30T17:13:18.116Z,1.60
2022-11-30T17:15:46.466Z,1.70
2022-11-30T17:18:15.950Z,1.70
2022-11-30T17:20:44.073Z,1.77
2022-11-30T17:23:12.097Z,1.50
2022-11-30T17:25:40.731Z,1.70
2022-11-30T17:28:08.865Z,1.70
2022-11-30T17:30:37.764Z,1.80
2022-11-30T17:33:05.805Z,1.80
2022-11-30T17:35:35.276Z,1.70
2022-11-30T17:38:03.261Z,1.70
2022-11-30T17:40:31.252Z,2.20
2022-11-30T17:42:59.260Z,1.93
2022-11-30T17:45:27.252Z,1.80
2022-11-30T17:47:55.412Z,1.90
2022-11-30T17:50:23.418Z,1.90
2022-11-30T17:52:52.759Z,2.00
2022-11-30T17:55:20.788Z,1.80
2022-11-30T17:57:48.865Z,1.90
2022-11-30T18:00:18.088Z,1.83
2022-11-30T18:02:46.150Z,1.80
2022-11-30T18:05:14.244Z,1.80
2022-11-30T18:07:42.246Z,1.90
2022-11-30T18:10:12.801Z,1.90
2022-11-30T18:12:40.809Z,1.80
2022-11-30T18:15:10.722Z,1.70
2022-11-30T18:17:38.721Z,1.63
2022-11-30T18:20:08.046Z,1.80
2022-11-30T18:22:36.134Z,2.20
2022-11-30T18:25:04.164Z,1.80
2022-11-30T18:27:33.542Z,1.90
2022-11-30T18:30:03.781Z,1.80
2022-11-30T18:32:35.423Z,1.90
2022-11-30T18:35:03.419Z,1.60
2022-11-30T18:37:31.482Z,1.77
2022-11-30T18:39:59.465Z,1.90
2022-11-30T18:42:27.480Z,2.30
2022-11-30T18:44:57.168Z,1.90
2022-11-30T18:47:25.197Z,1.90
2022-11-30T18:49:53.307Z,1.90
2022-11-30T18:52:21.345Z,1.90
2022-11-30T18:54:49.469Z,1.70
2022-11-30T18:57:17.703Z,1.97
2022-11-30T18:59:47.736Z,1.90
2022-11-30T19:02:20.205Z,2.00
2022-11-30T19:04:48.450Z,1.90
2022-11-30T19:07:16.592Z,2.30
2022-11-30T19:09:44.785Z,1.93
2022-11-30T19:12:12.893Z,2.20
2022-11-30T19:14:43.050Z,2.10
2022-11-30T19:17:11.294Z,1.80
2022-11-30T19:19:40.703Z,2.10
2022-11-30T19:22:08.736Z,1.90
2022-11-30T19:24:36.711Z,1.77
2022-11-30T19:27:05.076Z,2.00
2022-11-30T19:29:33.080Z,1.73
2022-11-30T19:32:01.071Z,1.80
2022-11-30T19:34:29.041Z,1.70
2022-11-30T19:36:58.392Z,1.70
2022-11-30T19:39:26.420Z,1.80
2022-11-30T19:41:54.621Z,1.53
2022-11-30T19:44:22.736Z,1.40
2022-11-30T19:46:50.806Z,1.50
2022-11-30T19:49:18.984Z,1.50
2022-11-30T19:51:46.988Z,1.60
2022-11-30T19:54:16.987Z,1.50
2022-11-30T19:56:45.079Z,1.50
2022-11-30T19:59:13.083Z,1.50
2022-11-30T20:01:41.235Z,1.50
2022-11-30T20:04:09.510Z,1.70
2022-11-30T20:06:39.063Z,1.60
2022-11-30T20:09:08.502Z,1.40
2022-11-30T20:11:38.336Z,1.50
2022-11-30T20:14:06.426Z,1.67
2022-11-30T20:16:34.482Z,1.60
2022-11-30T20:19:04.188Z,1.80
2022-11-30T20:21:34.040Z,1.77
2022-11-30T20:24:04.494Z,1.90
2022-11-30T20:26:35.743Z,1.90
2022-11-30T20:29:06.973Z,1.80
2022-11-30T20:31:37.424Z,1.70
2022-11-30T20:34:05.712Z,2.10
2022-11-30T20:36:33.853Z,1.70
2022-11-30T20:39:02.984Z,2.00
2022-11-30T20:41:31.021Z,1.80
2022-11-30T20:43:59.122Z,1.87
2022-11-30T20:46:30.800Z,2.00
2022-11-30T20:48:59.380Z,2.00
2022-11-30T20:51:31.134Z,2.13
2022-11-30T20:54:00.918Z,2.20
2022-11-30T20:56:28.927Z,2.00
2022-11-30T20:58:57.228Z,2.03
2022-11-30T21:01:25.318Z,2.00
2022-11-30T21:03:54.872Z,1.70
2022-11-30T21:06:22.806Z,1.80
2022-11-30T21:08:50.845Z,1.90
2022-11-30T21:11:21.564Z,2.03
2022-11-30T21:13:51.568Z,2.10
2022-11-30T21:16:27.264Z,2.30
2022-11-30T21:18:58.203Z,2.10
2022-11-30T21:21:27.692Z,2.10
2022-11-30T21:23:56.019Z,2.13
2022-11-30T21:26:25.968Z,2.50
2022-11-30T21:28:56.595Z,2.50
2022-11-30T21:31:24.810Z,2.40
2022-11-30T21:33:53.915Z,2.10
2022-11-30T21:36:24.486Z,1.87
2022-11-30T21:39:02.613Z,1.97
2022-11-30T21:41:32.792Z,2.27
2022-11-30T21:44:00.846Z,2.40
2022-11-30T21:46:29.072Z,2.50
2022-11-30T21:48:57.282Z,2.23
2022-11-30T21:51:28.308Z,2.20
2022-11-30T21:53:58.019Z,2.60
2022-11-30T21:56:28.530Z,2.30
2022-11-30T21:58:57.448Z,2.40
2022-11-30T22:01:28.326Z,2.30
2022-11-30T22:03:57.067Z,2.10
2022-11-30T22:06:27.695Z,1.80
2022-11-30T22:08:57.301Z,1.80
2022-11-30T22:11:25.336Z,2.30
2022-11-30T22:13:55.266Z,2.30
2022-11-30T22:16:24.794Z,2.10
2022-11-30T22:18:54.587Z,2.20
2022-11-30T22:21:24.814Z,2.27
2022-11-30T22:23:57.730Z,2.20
2022-11-30T22:26:28.593Z,2.30
2022-11-30T22:28:58.599Z,2.20
2022-11-30T22:31:29.395Z,2.10
2022-11-30T22:33:58.420Z,2.30
2022-11-30T22:36:28.310Z,1.93
2022-11-30T22:38:59.819Z,1.90
2022-11-30T22:41:29.166Z,2.00
2022-11-30T22:43:58.468Z,2.13
2022-11-30T22:46:29.017Z,2.00
2022-11-30T22:48:59.555Z,1.70
2022-11-30T22:51:29.068Z,1.63
2022-11-30T22:54:00.024Z,1.53
2022-11-30T22:56:30.199Z,1.50
2022-11-30T22:59:00.744Z,1.60
2022-11-30T23:01:30.332Z,1.50
2022-11-30T23:04:03.197Z,1.40
2022-11-30T23:06:32.016Z,1.60
2022-11-30T23:09:01.511Z,1.30
2022-11-30T23:11:30.972Z,1.30
2022-11-30T23:13:59.305Z,1.57
2022-11-30T23:16:27.608Z,1.43
2022-11-30T23:18:57.444Z,1.50
2022-11-30T23:21:28.330Z,1.50
2022-11-30T23:23:59.164Z,1.37
2022-11-30T23:26:30.459Z,1.30
2022-11-30T23:29:00.972Z,1.23
2022-11-30T23:31:32.546Z,1.50
2022-11-30T23:34:03.537Z,1.33
2022-11-30T23:36:31.644Z,1.20
2022-11-30T23:39:01.395Z,1.23
2022-11-30T23:41:30.823Z,1.30
2022-11-30T23:43:59.179Z,1.20
2022-11-30T23:46:27.541Z,1.23
2022-11-30T23:48:56.084Z,1.40
2022-11-30T23:51:24.987Z,1.40
2022-11-30T23:53:53.063Z,1.20
2022-11-30T23:56:23.056Z,1.40
2022-11-30T23:58:52.844Z,1.30
